createdAt,value
2023-01-01T00:05:11.838Z,73.71
2023-01-01T00:10:34.290Z,74.27
2023-01-01T00:15:56.487Z,74.34
2023-01-01T00:21:24.269Z,74.61
2023-01-01T00:26:46.470Z,74.45
2023-01-01T00:32:11.555Z,74.47
2023-01-01T00:37:34.037Z,74.04
2023-01-01T00:42:56.306Z,73.62
2023-01-01T00:48:19.655Z,73.65
2023-01-01T00:53:43.299Z,73.78
2023-01-01T00:59:06.291Z,73.77
2023-01-01T01:04:28.632Z,73.99
2023-01-01T01:09:51.016Z,74.37
2023-01-01T01:15:13.752Z,74.35
2023-01-01T01:20:35.958Z,74.34
2023-01-01T01:25:58.713Z,74.13
2023-01-01T01:31:22.108Z,74.21
2023-01-01T01:36:45.109Z,73.55
2023-01-01T01:42:07.660Z,73.50
2023-01-01T01:47:58.391Z,73.14
2023-01-01T01:53:20.262Z,72.82
2023-01-01T01:58:44.209Z,72.61
2023-01-01T02:04:19.677Z,71.92
2023-01-01T02:09:42.139Z,71.50
2023-01-01T02:15:04.846Z,70.83
2023-01-01T02:20:37.998Z,70.80
2023-01-01T02:26:45.551Z,70.45
2023-01-01T02:32:31.108Z,70.37
2023-01-01T02:37:55.146Z,70.04
2023-01-01T02:43:24.619Z,69.53
2023-01-01T02:49:01.268Z,68.76
2023-01-01T02:55:07.329Z,68.32
2023-01-01T03:00:33.814Z,67.20
2023-01-01T03:06:24.508Z,66.12
2023-01-01T03:12:11.210Z,65.23
2023-01-01T03:17:50.866Z,62.54
2023-01-01T03:23:18.016Z,62.33
2023-01-01T03:28:57.176Z,62.95
2023-01-01T03:34:24.450Z,64.04
2023-01-01T03:39:54.359Z,63.76
2023-01-01T03:45:27.225Z,63.74
2023-01-01T03:51:02.980Z,63.21
2023-01-01T03:57:02.530Z,62.69
2023-01-01T04:02:28.862Z,62.83
2023-01-01T04:13:16.592Z,62.28
2023-01-01T04:18:38.813Z,61.84
2023-01-01T04:24:01.519Z,61.65
2023-01-01T04:29:24.087Z,61.29
2023-01-01T04:34:46.304Z,61.55
2023-01-01T04:40:09.512Z,62.22
2023-01-01T04:45:31.822Z,62.40
2023-01-01T04:50:56.391Z,62.35
2023-01-01T04:56:26.084Z,62.41
2023-01-01T05:01:49.177Z,62.61
2023-01-01T05:07:11.712Z,62.45
2023-01-01T05:12:36.046Z,62.75
2023-01-01T05:17:58.243Z,63.16
2023-01-01T05:23:22.554Z,62.69
2023-01-01T05:28:45.209Z,62.56
2023-01-01T05:39:30.690Z,62.18
2023-01-01T05:44:53.113Z,61.86
2023-01-01T05:50:15.868Z,61.79
2023-01-01T05:55:38.118Z,61.46
2023-01-01T06:01:00.547Z,60.60
2023-01-01T06:06:29.108Z,59.80
2023-01-01T06:11:51.929Z,59.01
2023-01-01T06:17:14.145Z,59.09
2023-01-01T06:22:36.321Z,59.47
2023-01-01T06:27:58.515Z,59.80
2023-01-01T06:33:20.761Z,59.86
2023-01-01T06:38:47.190Z,60.18
2023-01-01T06:44:10.383Z,60.19
2023-01-01T06:49:32.718Z,59.07
2023-01-01T06:54:55.453Z,58.68
2023-01-01T07:00:18.626Z,58.18
2023-01-01T07:05:41.032Z,58.15
2023-01-01T07:11:04.097Z,57.69
2023-01-01T07:16:27.084Z,57.42
2023-01-01T07:21:59.211Z,57.34
2023-01-01T07:27:21.395Z,57.11
2023-01-01T07:32:43.666Z,56.37
2023-01-01T07:38:05.932Z,55.95
2023-01-01T07:43:28.593Z,55.41
2023-01-01T07:48:50.798Z,54.94
2023-01-01T07:54:13.043Z,54.56
2023-01-01T07:59:35.288Z,54.42
2023-01-01T08:04:58.081Z,54.50
2023-01-01T08:10:22.183Z,54.05
2023-01-01T08:15:45.102Z,53.79
2023-01-01T08:21:07.326Z,53.59
2023-01-01T08:26:43.792Z,53.34
2023-01-01T08:32:06.489Z,52.87
2023-01-01T08:37:31.859Z,51.85
2023-01-01T08:42:54.343Z,51.37
2023-01-01T08:48:17.216Z,51.30
2023-01-01T08:53:43.052Z,51.00
2023-01-01T08:59:04.738Z,50.40
2023-01-01T09:04:27.463Z,49.79
2023-01-01T09:09:50.427Z,49.25
2023-01-01T09:15:14.087Z,48.75
2023-01-01T09:20:36.475Z,48.49
2023-01-01T09:25:59.162Z,48.62
2023-01-01T09:31:22.514Z,48.43
2023-01-01T09:36:48.997Z,48.18
2023-01-01T09:42:24.827Z,48.41
2023-01-01T09:47:54.609Z,48.23
2023-01-01T09:53:25.034Z,48.22
2023-01-01T09:58:50.560Z,48.53
2023-01-01T10:05:00.029Z,48.91
2023-01-01T10:10:39.792Z,49.33
2023-01-01T10:16:35.981Z,49.66
2023-01-01T10:22:00.957Z,50.05
2023-01-01T10:27:36.571Z,50.27
2023-01-01T10:33:02.928Z,50.54
2023-01-01T10:38:32.863Z,50.73
2023-01-01T10:43:55.857Z,50.59
2023-01-01T10:49:26.901Z,50.69
2023-01-01T10:54:59.807Z,50.46
2023-01-01T11:00:37.528Z,50.66
2023-01-01T11:06:26.677Z,50.00
2023-01-01T11:11:52.650Z,50.60
2023-01-01T11:17:16.585Z,50.60
2023-01-01T11:22:58.375Z,50.67
2023-01-01T11:28:38.985Z,50.92
2023-01-01T11:34:14.279Z,51.01
2023-01-01T11:39:41.643Z,51.07
2023-01-01T11:45:07.874Z,50.88
2023-01-01T11:50:50.366Z,51.16
2023-01-01T11:56:31.002Z,51.14
2023-01-01T12:02:00.396Z,51.25
2023-01-01T12:07:30.000Z,51.58
2023-01-01T12:13:24.359Z,51.74
2023-01-01T12:19:09.650Z,52.02
2023-01-01T12:24:32.849Z,52.03
2023-01-01T12:30:43.992Z,52.34
2023-01-01T12:36:17.408Z,52.45
2023-01-01T12:42:10.740Z,52.66
2023-01-01T12:48:10.235Z,52.89
2023-01-01T12:53:52.010Z,53.16
2023-01-01T12:59:30.818Z,53.13
2023-01-01T13:04:57.136Z,53.42
2023-01-01T13:10:41.313Z,53.68
2023-01-01T13:16:06.464Z,54.07
2023-01-01T13:21:36.625Z,54.01
2023-01-01T13:27:01.142Z,53.91
2023-01-01T13:32:26.225Z,53.97
2023-01-01T13:37:56.741Z,53.69
2023-01-01T13:43:23.805Z,53.69
2023-01-01T13:49:01.959Z,53.68
2023-01-01T13:54:43.923Z,54.14
2023-01-01T14:00:14.241Z,54.21
2023-01-01T14:05:50.872Z,54.65
2023-01-01T14:11:30.884Z,54.57
2023-01-01T14:16:53.073Z,54.91
2023-01-01T14:22:18.080Z,55.28
2023-01-01T14:27:42.131Z,55.61
2023-01-01T14:33:11.907Z,55.92
2023-01-01T14:38:45.061Z,56.48
2023-01-01T14:44:15.756Z,56.85
2023-01-01T14:49:45.624Z,57.11
2023-01-01T14:55:02.414Z,57.15
2023-01-01T15:00:38.130Z,57.03
2023-01-01T15:06:11.442Z,57.81
2023-01-01T15:11:34.297Z,58.20
2023-01-01T15:17:07.362Z,58.57
2023-01-01T15:22:42.787Z,58.83
2023-01-01T15:28:08.988Z,59.28
2023-01-01T15:33:35.585Z,59.80
2023-01-01T15:39:00.102Z,59.97
2023-01-01T15:44:38.839Z,59.86
2023-01-01T15:50:13.993Z,60.41
2023-01-01T15:55:39.984Z,60.89
2023-01-01T16:01:10.916Z,61.38
2023-01-01T16:06:37.181Z,61.65
2023-01-01T16:12:02.526Z,61.85
2023-01-01T16:17:26.712Z,62.32
2023-01-01T16:22:49.634Z,62.60
2023-01-01T16:28:11.940Z,62.97
2023-01-01T16:33:35.963Z,63.19
2023-01-01T16:38:58.170Z,63.27
2023-01-01T16:44:22.927Z,63.50
2023-01-01T16:49:45.344Z,63.13
2023-01-01T16:55:07.536Z,63.26
2023-01-01T17:00:31.213Z,63.06
2023-01-01T17:05:55.867Z,62.81
2023-01-01T17:11:27.342Z,62.96
2023-01-01T17:17:03.623Z,62.72
2023-01-01T17:22:30.680Z,62.44
2023-01-01T17:27:50.385Z,62.57
2023-01-01T17:33:13.121Z,63.02
2023-01-01T17:38:35.784Z,63.13
2023-01-01T17:44:02.234Z,63.19
2023-01-01T17:49:24.641Z,63.48
2023-01-01T17:54:46.840Z,63.82
2023-01-01T18:00:10.975Z,63.76
2023-01-01T18:05:33.763Z,64.01
2023-01-01T18:11:02.433Z,64.17
2023-01-01T18:16:26.128Z,64.24
2023-01-01T18:21:48.770Z,64.40
2023-01-01T18:27:11.075Z,64.72
2023-01-01T18:32:33.311Z,65.15
2023-01-01T18:37:56.236Z,65.40
2023-01-01T18:43:31.116Z,65.97
2023-01-01T18:48:58.812Z,66.38
2023-01-01T18:54:19.526Z,66.65
2023-01-01T18:59:43.370Z,67.12
2023-01-01T19:05:26.111Z,67.43
2023-01-01T19:11:12.995Z,67.75
2023-01-01T19:16:40.849Z,67.98
2023-01-01T19:27:53.639Z,68.30
2023-01-01T19:33:15.854Z,68.21
2023-01-01T19:38:39.859Z,68.04
2023-01-01T19:44:07.232Z,67.80
2023-01-01T19:49:27.722Z,67.93
2023-01-01T19:54:57.713Z,67.76
2023-01-01T20:00:14.424Z,67.77
2023-01-01T20:05:36.694Z,67.83
2023-01-01T20:10:59.391Z,67.78
2023-01-01T20:16:21.920Z,67.89
2023-01-01T20:22:01.963Z,67.99
2023-01-01T20:27:27.725Z,67.87
2023-01-01T20:32:50.283Z,68.00
2023-01-01T20:38:12.504Z,67.83
2023-01-01T20:43:34.813Z,67.84
2023-01-01T20:48:57.143Z,68.17
2023-01-01T20:54:19.842Z,68.65
2023-01-01T20:59:42.073Z,68.94
2023-01-01T21:05:05.095Z,69.63
2023-01-01T21:10:27.400Z,70.11
2023-01-01T21:15:50.799Z,69.88
2023-01-01T21:21:15.322Z,69.52
2023-01-01T21:26:43.664Z,70.11
2023-01-01T21:32:11.020Z,70.33
2023-01-01T21:37:49.872Z,70.33
2023-01-01T21:43:40.446Z,70.83
2023-01-01T21:49:22.181Z,71.57
2023-01-01T21:54:50.185Z,72.01
2023-01-01T22:00:13.255Z,72.38
2023-01-01T22:05:44.171Z,73.12
2023-01-01T22:11:07.010Z,73.92
2023-01-01T22:16:35.713Z,74.41
2023-01-01T22:21:59.589Z,74.74
2023-01-01T22:27:41.625Z,75.03
2023-01-01T22:33:11.997Z,75.40
2023-01-01T22:38:39.304Z,75.15
2023-01-01T22:44:06.054Z,75.26
2023-01-01T22:49:50.976Z,75.69
2023-01-01T22:55:13.356Z,76.13
2023-01-01T23:00:36.773Z,76.52
2023-01-01T23:05:59.658Z,76.83
2023-01-01T23:11:22.138Z,77.31
2023-01-01T23:16:44.363Z,77.56
2023-01-01T23:22:07.110Z,77.91
2023-01-01T23:27:30.050Z,78.01
2023-01-01T23:32:53.470Z,77.94
2023-01-01T23:38:16.551Z,77.93
2023-01-01T23:43:43.237Z,78.13
2023-01-01T23:49:05.700Z,78.37
2023-01-01T23:54:28.027Z,78.39
2023-01-01T23:59:50.287Z,78.42
